sensor_id;sensor_type;location;lat;lon;timestamp;temperature;humidity
73572;DHT22;61854;48.510;-2.770;2023-02-01T00:01:09;9.10;89.80
73572;DHT22;61854;48.510;-2.770;2023-02-01T00:03:35;9.10;90.00
73572;DHT22;61854;48.510;-2.770;2023-02-01T00:06:01;9.00;90.30
73572;DHT22;61854;48.510;-2.770;2023-02-01T00:08:27;9.00;90.40
73572;DHT22;61854;48.510;-2.770;2023-02-01T00:11:02;9.00;90.20
73572;DHT22;61854;48.510;-2.770;2023-02-01T00:13:29;9.00;90.10
73572;DHT22;61854;48.510;-2.770;2023-02-01T00:16:01;9.00;90.40
73572;DHT22;61854;48.510;-2.770;2023-02-01T00:18:27;9.00;90.00
73572;DHT22;61854;48.510;-2.770;2023-02-01T00:20:52;9.00;89.30
73572;DHT22;61854;48.510;-2.770;2023-02-01T00:23:18;9.00;89.80
73572;DHT22;61854;48.510;-2.770;2023-02-01T00:25:43;9.00;88.90
73572;DHT22;61854;48.510;-2.770;2023-02-01T00:28:09;9.00;90.00
73572;DHT22;61854;48.510;-2.770;2023-02-01T00:30:34;9.00;88.90
73572;DHT22;61854;48.510;-2.770;2023-02-01T00:33:00;9.00;88.90
73572;DHT22;61854;48.510;-2.770;2023-02-01T00:35:25;9.00;89.10
73572;DHT22;61854;48.510;-2.770;2023-02-01T00:37:51;9.00;89.30
73572;DHT22;61854;48.510;-2.770;2023-02-01T00:40:16;9.00;89.30
73572;DHT22;61854;48.510;-2.770;2023-02-01T00:42:42;8.90;89.00
73572;DHT22;61854;48.510;-2.770;2023-02-01T00:45:07;8.90;88.70
73572;DHT22;61854;48.510;-2.770;2023-02-01T00:47:33;8.90;88.90
73572;DHT22;61854;48.510;-2.770;2023-02-01T00:49:59;8.90;88.80
73572;DHT22;61854;48.510;-2.770;2023-02-01T00:52:24;8.90;88.60
73572;DHT22;61854;48.510;-2.770;2023-02-01T00:54:50;8.90;88.90
73572;DHT22;61854;48.510;-2.770;2023-02-01T00:57:15;8.90;89.10
73572;DHT22;61854;48.510;-2.770;2023-02-01T00:59:41;8.90;88.80
73572;DHT22;61854;48.510;-2.770;2023-02-01T01:02:06;8.90;88.50
73572;DHT22;61854;48.510;-2.770;2023-02-01T01:04:32;8.90;88.10
73572;DHT22;61854;48.510;-2.770;2023-02-01T01:06:57;8.90;88.00
73572;DHT22;61854;48.510;-2.770;2023-02-01T01:09:22;8.90;88.10
73572;DHT22;61854;48.510;-2.770;2023-02-01T01:11:48;8.90;88.10
73572;DHT22;61854;48.510;-2.770;2023-02-01T01:14:13;8.90;87.70
73572;DHT22;61854;48.510;-2.770;2023-02-01T01:16:39;8.90;88.10
73572;DHT22;61854;48.510;-2.770;2023-02-01T01:19:04;8.90;87.80
73572;DHT22;61854;48.510;-2.770;2023-02-01T01:21:30;8.90;87.80
73572;DHT22;61854;48.510;-2.770;2023-02-01T01:23:56;9.00;87.70
73572;DHT22;61854;48.510;-2.770;2023-02-01T01:26:23;8.90;87.00
73572;DHT22;61854;48.510;-2.770;2023-02-01T01:28:48;8.90;87.20
73572;DHT22;61854;48.510;-2.770;2023-02-01T01:31:15;8.90;87.50
73572;DHT22;61854;48.510;-2.770;2023-02-01T01:33:41;8.90;87.70
73572;DHT22;61854;48.510;-2.770;2023-02-01T01:36:09;8.90;87.20
73572;DHT22;61854;48.510;-2.770;2023-02-01T01:38:38;8.90;87.80
73572;DHT22;61854;48.510;-2.770;2023-02-01T01:41:04;8.90;87.70
73572;DHT22;61854;48.510;-2.770;2023-02-01T01:43:49;8.90;87.50
73572;DHT22;61854;48.510;-2.770;2023-02-01T01:46:16;8.90;87.80
73572;DHT22;61854;48.510;-2.770;2023-02-01T01:48:41;8.90;87.60
73572;DHT22;61854;48.510;-2.770;2023-02-01T01:51:08;8.90;87.80
73572;DHT22;61854;48.510;-2.770;2023-02-01T01:53:37;8.90;88.10
73572;DHT22;61854;48.510;-2.770;2023-02-01T01:56:03;8.90;87.80
73572;DHT22;61854;48.510;-2.770;2023-02-01T01:58:29;8.90;87.80
73572;DHT22;61854;48.510;-2.770;2023-02-01T02:00:55;8.90;87.50
73572;DHT22;61854;48.510;-2.770;2023-02-01T02:03:22;8.90;88.00
73572;DHT22;61854;48.510;-2.770;2023-02-01T02:05:49;8.90;87.70
73572;DHT22;61854;48.510;-2.770;2023-02-01T02:08:15;9.00;87.40
73572;DHT22;61854;48.510;-2.770;2023-02-01T02:10:41;9.00;87.20
73572;DHT22;61854;48.510;-2.770;2023-02-01T02:13:25;9.00;86.70
73572;DHT22;61854;48.510;-2.770;2023-02-01T02:16:05;9.00;86.80
73572;DHT22;61854;48.510;-2.770;2023-02-01T02:26:23;9.00;85.80
73572;DHT22;61854;48.510;-2.770;2023-02-01T02:33:52;9.00;86.70
73572;DHT22;61854;48.510;-2.770;2023-02-01T02:39:00;9.00;86.80
73572;DHT22;61854;48.510;-2.770;2023-02-01T02:41:44;9.10;86.40
73572;DHT22;61854;48.510;-2.770;2023-02-01T02:47:28;9.10;86.40
73572;DHT22;61854;48.510;-2.770;2023-02-01T02:49:59;9.00;86.30
73572;DHT22;61854;48.510;-2.770;2023-02-01T02:52:50;9.10;86.80
73572;DHT22;61854;48.510;-2.770;2023-02-01T02:55:36;9.10;86.70
73572;DHT22;61854;48.510;-2.770;2023-02-01T02:58:04;9.00;86.20
73572;DHT22;61854;48.510;-2.770;2023-02-01T03:00:49;9.00;87.00
73572;DHT22;61854;48.510;-2.770;2023-02-01T03:03:36;9.00;86.90
73572;DHT22;61854;48.510;-2.770;2023-02-01T03:06:21;9.00;87.10
73572;DHT22;61854;48.510;-2.770;2023-02-01T03:08:47;9.00;87.20
73572;DHT22;61854;48.510;-2.770;2023-02-01T03:11:13;9.00;87.30
73572;DHT22;61854;48.510;-2.770;2023-02-01T03:21:16;9.00;87.20
73572;DHT22;61854;48.510;-2.770;2023-02-01T03:23:44;9.00;87.00
73572;DHT22;61854;48.510;-2.770;2023-02-01T03:26:13;9.00;86.90
73572;DHT22;61854;48.510;-2.770;2023-02-01T03:28:43;9.00;86.40
73572;DHT22;61854;48.510;-2.770;2023-02-01T03:31:10;9.00;87.20
73572;DHT22;61854;48.510;-2.770;2023-02-01T03:33:36;9.00;86.90
73572;DHT22;61854;48.510;-2.770;2023-02-01T03:41:07;9.00;87.00
73572;DHT22;61854;48.510;-2.770;2023-02-01T03:43:34;9.00;86.90
73572;DHT22;61854;48.510;-2.770;2023-02-01T03:46:03;9.00;87.40
73572;DHT22;61854;48.510;-2.770;2023-02-01T03:48:31;9.00;87.30
73572;DHT22;61854;48.510;-2.770;2023-02-01T03:50:59;9.00;87.20
73572;DHT22;61854;48.510;-2.770;2023-02-01T03:53:26;9.00;87.20
73572;DHT22;61854;48.510;-2.770;2023-02-01T03:55:53;9.00;87.00
73572;DHT22;61854;48.510;-2.770;2023-02-01T03:58:20;9.00;86.70
73572;DHT22;61854;48.510;-2.770;2023-02-01T04:00:46;9.00;87.00
73572;DHT22;61854;48.510;-2.770;2023-02-01T04:03:15;9.00;87.20
73572;DHT22;61854;48.510;-2.770;2023-02-01T04:05:40;9.00;86.90
73572;DHT22;61854;48.510;-2.770;2023-02-01T04:08:06;9.00;86.80
73572;DHT22;61854;48.510;-2.770;2023-02-01T04:10:34;9.00;86.30
73572;DHT22;61854;48.510;-2.770;2023-02-01T04:13:00;9.00;86.70
73572;DHT22;61854;48.510;-2.770;2023-02-01T04:15:25;9.00;85.60
73572;DHT22;61854;48.510;-2.770;2023-02-01T04:17:51;9.10;85.20
73572;DHT22;61854;48.510;-2.770;2023-02-01T04:20:16;9.00;86.40
73572;DHT22;61854;48.510;-2.770;2023-02-01T04:22:43;9.00;86.20
73572;DHT22;61854;48.510;-2.770;2023-02-01T04:25:08;9.10;86.40
73572;DHT22;61854;48.510;-2.770;2023-02-01T04:27:34;9.00;86.10
73572;DHT22;61854;48.510;-2.770;2023-02-01T04:30:00;9.00;85.50
73572;DHT22;61854;48.510;-2.770;2023-02-01T04:32:25;9.00;86.00
73572;DHT22;61854;48.510;-2.770;2023-02-01T04:34:51;9.00;86.10
73572;DHT22;61854;48.510;-2.770;2023-02-01T04:37:16;9.00;85.90
73572;DHT22;61854;48.510;-2.770;2023-02-01T04:39:42;9.00;86.40
73572;DHT22;61854;48.510;-2.770;2023-02-01T04:42:07;9.00;86.40
73572;DHT22;61854;48.510;-2.770;2023-02-01T04:44:34;9.00;86.60
73572;DHT22;61854;48.510;-2.770;2023-02-01T04:46:59;9.00;86.40
73572;DHT22;61854;48.510;-2.770;2023-02-01T04:49:25;9.00;86.90
73572;DHT22;61854;48.510;-2.770;2023-02-01T04:51:52;9.00;86.60
73572;DHT22;61854;48.510;-2.770;2023-02-01T04:54:17;9.00;86.40
73572;DHT22;61854;48.510;-2.770;2023-02-01T04:56:43;9.00;86.10
73572;DHT22;61854;48.510;-2.770;2023-02-01T04:59:10;9.00;86.40
73572;DHT22;61854;48.510;-2.770;2023-02-01T05:01:36;9.00;86.00
73572;DHT22;61854;48.510;-2.770;2023-02-01T05:04:01;9.00;86.10
73572;DHT22;61854;48.510;-2.770;2023-02-01T05:06:27;9.00;86.40
73572;DHT22;61854;48.510;-2.770;2023-02-01T05:08:52;9.00;86.10
73572;DHT22;61854;48.510;-2.770;2023-02-01T05:11:18;9.00;86.00
73572;DHT22;61854;48.510;-2.770;2023-02-01T05:14:02;9.00;86.00
73572;DHT22;61854;48.510;-2.770;2023-02-01T05:16:27;9.00;86.20
73572;DHT22;61854;48.510;-2.770;2023-02-01T05:18:53;9.00;85.80
73572;DHT22;61854;48.510;-2.770;2023-02-01T05:21:18;9.00;86.10
73572;DHT22;61854;48.510;-2.770;2023-02-01T05:23:44;9.00;86.50
73572;DHT22;61854;48.510;-2.770;2023-02-01T05:26:28;9.00;86.50
73572;DHT22;61854;48.510;-2.770;2023-02-01T05:28:54;9.00;86.50
73572;DHT22;61854;48.510;-2.770;2023-02-01T05:31:19;9.00;87.00
73572;DHT22;61854;48.510;-2.770;2023-02-01T05:33:45;9.00;87.10
73572;DHT22;61854;48.510;-2.770;2023-02-01T05:36:10;9.00;86.80
73572;DHT22;61854;48.510;-2.770;2023-02-01T05:38:36;9.00;86.60
73572;DHT22;61854;48.510;-2.770;2023-02-01T05:41:01;9.00;86.30
73572;DHT22;61854;48.510;-2.770;2023-02-01T05:43:27;9.00;87.00
73572;DHT22;61854;48.510;-2.770;2023-02-01T05:45:52;9.00;86.70
73572;DHT22;61854;48.510;-2.770;2023-02-01T05:48:18;9.00;87.00
73572;DHT22;61854;48.510;-2.770;2023-02-01T05:50:44;9.00;86.80
73572;DHT22;61854;48.510;-2.770;2023-02-01T05:53:09;9.00;86.40
73572;DHT22;61854;48.510;-2.770;2023-02-01T05:55:35;9.00;86.60
73572;DHT22;61854;48.510;-2.770;2023-02-01T05:58:01;9.00;86.30
73572;DHT22;61854;48.510;-2.770;2023-02-01T06:00:26;9.00;86.70
73572;DHT22;61854;48.510;-2.770;2023-02-01T06:02:52;9.00;86.50
73572;DHT22;61854;48.510;-2.770;2023-02-01T06:05:17;8.90;86.40
73572;DHT22;61854;48.510;-2.770;2023-02-01T06:07:43;9.00;86.80
73572;DHT22;61854;48.510;-2.770;2023-02-01T06:10:09;8.90;86.50
73572;DHT22;61854;48.510;-2.770;2023-02-01T06:12:34;8.90;86.30
73572;DHT22;61854;48.510;-2.770;2023-02-01T06:15:00;8.90;86.60
73572;DHT22;61854;48.510;-2.770;2023-02-01T06:17:25;8.90;86.70
73572;DHT22;61854;48.510;-2.770;2023-02-01T06:19:51;8.90;86.50
73572;DHT22;61854;48.510;-2.770;2023-02-01T06:22:16;8.90;86.30
73572;DHT22;61854;48.510;-2.770;2023-02-01T06:24:42;8.90;86.90
73572;DHT22;61854;48.510;-2.770;2023-02-01T06:27:08;8.90;86.70
73572;DHT22;61854;48.510;-2.770;2023-02-01T06:29:34;8.80;86.70
73572;DHT22;61854;48.510;-2.770;2023-02-01T06:32:00;8.90;87.00
73572;DHT22;61854;48.510;-2.770;2023-02-01T06:34:25;8.90;87.50
73572;DHT22;61854;48.510;-2.770;2023-02-01T06:36:51;8.90;87.80
73572;DHT22;61854;48.510;-2.770;2023-02-01T06:39:16;9.00;88.20
73572;DHT22;61854;48.510;-2.770;2023-02-01T06:41:48;9.00;88.20
73572;DHT22;61854;48.510;-2.770;2023-02-01T06:44:14;9.00;88.00
73572;DHT22;61854;48.510;-2.770;2023-02-01T06:46:40;9.00;87.70
73572;DHT22;61854;48.510;-2.770;2023-02-01T06:49:05;9.00;87.50
73572;DHT22;61854;48.510;-2.770;2023-02-01T06:51:31;9.00;87.70
73572;DHT22;61854;48.510;-2.770;2023-02-01T06:53:56;9.00;88.10
73572;DHT22;61854;48.510;-2.770;2023-02-01T06:56:22;9.00;87.70
73572;DHT22;61854;48.510;-2.770;2023-02-01T06:58:48;9.00;87.30
73572;DHT22;61854;48.510;-2.770;2023-02-01T07:01:13;9.00;87.30
73572;DHT22;61854;48.510;-2.770;2023-02-01T07:03:39;9.00;87.10
73572;DHT22;61854;48.510;-2.770;2023-02-01T07:06:05;9.00;87.30
73572;DHT22;61854;48.510;-2.770;2023-02-01T07:08:31;8.90;87.20
73572;DHT22;61854;48.510;-2.770;2023-02-01T07:11:01;8.90;87.20
73572;DHT22;61854;48.510;-2.770;2023-02-01T07:13:27;8.90;87.70
73572;DHT22;61854;48.510;-2.770;2023-02-01T07:15:52;8.90;88.00
73572;DHT22;61854;48.510;-2.770;2023-02-01T07:18:20;8.80;87.70
73572;DHT22;61854;48.510;-2.770;2023-02-01T07:20:49;8.80;87.80
73572;DHT22;61854;48.510;-2.770;2023-02-01T07:23:14;8.80;88.00
73572;DHT22;61854;48.510;-2.770;2023-02-01T07:25:40;8.80;87.90
73572;DHT22;61854;48.510;-2.770;2023-02-01T07:28:05;8.80;88.10
73572;DHT22;61854;48.510;-2.770;2023-02-01T07:30:31;8.80;88.30
73572;DHT22;61854;48.510;-2.770;2023-02-01T07:32:56;8.80;88.80
73572;DHT22;61854;48.510;-2.770;2023-02-01T07:35:26;8.80;88.80
73572;DHT22;61854;48.510;-2.770;2023-02-01T07:37:52;8.80;88.80
73572;DHT22;61854;48.510;-2.770;2023-02-01T07:40:18;8.80;89.00
73572;DHT22;61854;48.510;-2.770;2023-02-01T07:42:43;8.80;88.80
73572;DHT22;61854;48.510;-2.770;2023-02-01T07:45:09;8.80;88.90
73572;DHT22;61854;48.510;-2.770;2023-02-01T07:47:35;8.80;88.80
73572;DHT22;61854;48.510;-2.770;2023-02-01T07:50:00;8.80;88.90
73572;DHT22;61854;48.510;-2.770;2023-02-01T07:52:27;8.80;88.90
73572;DHT22;61854;48.510;-2.770;2023-02-01T07:54:53;8.80;89.10
73572;DHT22;61854;48.510;-2.770;2023-02-01T07:57:18;8.80;89.30
73572;DHT22;61854;48.510;-2.770;2023-02-01T07:59:44;8.70;89.30
73572;DHT22;61854;48.510;-2.770;2023-02-01T08:02:28;8.70;89.60
73572;DHT22;61854;48.510;-2.770;2023-02-01T08:04:54;8.60;89.80
73572;DHT22;61854;48.510;-2.770;2023-02-01T08:07:19;8.60;90.20
73572;DHT22;61854;48.510;-2.770;2023-02-01T08:09:45;8.60;90.20
73572;DHT22;61854;48.510;-2.770;2023-02-01T08:12:11;8.60;90.20
73572;DHT22;61854;48.510;-2.770;2023-02-01T08:14:36;8.60;90.00
73572;DHT22;61854;48.510;-2.770;2023-02-01T08:17:02;8.70;89.40
73572;DHT22;61854;48.510;-2.770;2023-02-01T08:19:27;8.70;89.10
73572;DHT22;61854;48.510;-2.770;2023-02-01T08:21:53;8.80;89.10
73572;DHT22;61854;48.510;-2.770;2023-02-01T08:24:18;8.80;88.50
73572;DHT22;61854;48.510;-2.770;2023-02-01T08:26:44;8.80;88.30
73572;DHT22;61854;48.510;-2.770;2023-02-01T08:29:10;8.90;88.10
73572;DHT22;61854;48.510;-2.770;2023-02-01T08:31:37;8.90;87.80
73572;DHT22;61854;48.510;-2.770;2023-02-01T08:34:05;8.90;87.40
73572;DHT22;61854;48.510;-2.770;2023-02-01T08:36:33;8.90;87.50
73572;DHT22;61854;48.510;-2.770;2023-02-01T08:38:59;8.90;87.20
73572;DHT22;61854;48.510;-2.770;2023-02-01T08:41:25;8.90;87.40
73572;DHT22;61854;48.510;-2.770;2023-02-01T08:43:51;8.90;87.40
73572;DHT22;61854;48.510;-2.770;2023-02-01T08:46:19;9.00;87.70
73572;DHT22;61854;48.510;-2.770;2023-02-01T08:48:45;9.00;87.60
73572;DHT22;61854;48.510;-2.770;2023-02-01T08:51:11;9.00;87.70
73572;DHT22;61854;48.510;-2.770;2023-02-01T08:53:38;9.00;88.00
73572;DHT22;61854;48.510;-2.770;2023-02-01T08:56:06;9.00;87.70
73572;DHT22;61854;48.510;-2.770;2023-02-01T08:58:32;9.10;87.20
73572;DHT22;61854;48.510;-2.770;2023-02-01T09:01:02;9.10;87.70
73572;DHT22;61854;48.510;-2.770;2023-02-01T09:03:27;9.20;87.20
73572;DHT22;61854;48.510;-2.770;2023-02-01T09:05:59;9.20;87.00
73572;DHT22;61854;48.510;-2.770;2023-02-01T09:08:24;9.20;86.90
73572;DHT22;61854;48.510;-2.770;2023-02-01T09:10:49;9.30;87.00
73572;DHT22;61854;48.510;-2.770;2023-02-01T09:13:15;9.30;86.80
73572;DHT22;61854;48.510;-2.770;2023-02-01T09:15:41;9.30;86.90
73572;DHT22;61854;48.510;-2.770;2023-02-01T09:18:06;9.40;86.90
73572;DHT22;61854;48.510;-2.770;2023-02-01T09:20:32;9.40;86.80
73572;DHT22;61854;48.510;-2.770;2023-02-01T09:22:57;9.50;87.10
73572;DHT22;61854;48.510;-2.770;2023-02-01T09:25:23;9.50;86.20
73572;DHT22;61854;48.510;-2.770;2023-02-01T09:27:48;9.50;87.00
73572;DHT22;61854;48.510;-2.770;2023-02-01T09:30:14;9.60;86.40
73572;DHT22;61854;48.510;-2.770;2023-02-01T09:32:39;9.60;86.60
73572;DHT22;61854;48.510;-2.770;2023-02-01T09:35:05;9.70;86.50
73572;DHT22;61854;48.510;-2.770;2023-02-01T09:37:31;9.70;86.30
73572;DHT22;61854;48.510;-2.770;2023-02-01T09:39:56;9.70;85.90
73572;DHT22;61854;48.510;-2.770;2023-02-01T09:42:36;9.80;85.90
73572;DHT22;61854;48.510;-2.770;2023-02-01T09:45:17;9.80;85.50
73572;DHT22;61854;48.510;-2.770;2023-02-01T09:47:46;9.80;85.70
73572;DHT22;61854;48.510;-2.770;2023-02-01T09:50:15;9.80;85.80
73572;DHT22;61854;48.510;-2.770;2023-02-01T09:52:47;9.90;85.90
73572;DHT22;61854;48.510;-2.770;2023-02-01T09:55:18;10.00;85.80
73572;DHT22;61854;48.510;-2.770;2023-02-01T10:00:49;10.10;85.30
73572;DHT22;61854;48.510;-2.770;2023-02-01T10:03:15;10.20;84.70
73572;DHT22;61854;48.510;-2.770;2023-02-01T10:05:45;10.20;84.50
73572;DHT22;61854;48.510;-2.770;2023-02-01T10:08:19;10.20;84.10
73572;DHT22;61854;48.510;-2.770;2023-02-01T10:10:49;10.20;84.10
73572;DHT22;61854;48.510;-2.770;2023-02-01T10:15:44;10.20;84.50
73572;DHT22;61854;48.510;-2.770;2023-02-01T10:25:55;10.30;85.10
73572;DHT22;61854;48.510;-2.770;2023-02-01T10:28:22;10.30;85.30
73572;DHT22;61854;48.510;-2.770;2023-02-01T10:30:49;10.20;84.90
73572;DHT22;61854;48.510;-2.770;2023-02-01T10:33:24;10.30;85.30
73572;DHT22;61854;48.510;-2.770;2023-02-01T10:35:55;10.30;84.60
73572;DHT22;61854;48.510;-2.770;2023-02-01T10:38:24;10.30;83.70
73572;DHT22;61854;48.510;-2.770;2023-02-01T10:40:51;10.30;84.40
73572;DHT22;61854;48.510;-2.770;2023-02-01T10:43:17;10.30;83.60
73572;DHT22;61854;48.510;-2.770;2023-02-01T10:45:42;10.30;83.70
73572;DHT22;61854;48.510;-2.770;2023-02-01T10:48:08;10.40;83.80
73572;DHT22;61854;48.510;-2.770;2023-02-01T10:50:38;10.50;82.80
73572;DHT22;61854;48.510;-2.770;2023-02-01T10:58:04;10.70;82.40
73572;DHT22;61854;48.510;-2.770;2023-02-01T11:00:52;10.70;81.90
73572;DHT22;61854;48.510;-2.770;2023-02-01T11:03:19;10.80;81.70
73572;DHT22;61854;48.510;-2.770;2023-02-01T11:05:45;10.80;81.40
73572;DHT22;61854;48.510;-2.770;2023-02-01T11:08:14;10.80;81.10
73572;DHT22;61854;48.510;-2.770;2023-02-01T11:10:41;10.80;81.60
73572;DHT22;61854;48.510;-2.770;2023-02-01T11:13:15;10.70;81.90
73572;DHT22;61854;48.510;-2.770;2023-02-01T11:15:44;10.70;82.20
73572;DHT22;61854;48.510;-2.770;2023-02-01T11:18:15;10.60;82.10
73572;DHT22;61854;48.510;-2.770;2023-02-01T11:20:41;10.60;82.50
73572;DHT22;61854;48.510;-2.770;2023-02-01T11:23:14;10.50;81.60
73572;DHT22;61854;48.510;-2.770;2023-02-01T11:25:40;10.60;82.20
73572;DHT22;61854;48.510;-2.770;2023-02-01T11:28:15;10.60;81.70
73572;DHT22;61854;48.510;-2.770;2023-02-01T11:30:42;10.50;82.00
73572;DHT22;61854;48.510;-2.770;2023-02-01T11:33:12;10.50;82.30
73572;DHT22;61854;48.510;-2.770;2023-02-01T11:35:38;10.60;82.50
73572;DHT22;61854;48.510;-2.770;2023-02-01T11:38:13;10.60;82.20
73572;DHT22;61854;48.510;-2.770;2023-02-01T11:40:43;10.60;82.00
73572;DHT22;61854;48.510;-2.770;2023-02-01T11:43:13;10.60;82.40
73572;DHT22;61854;48.510;-2.770;2023-02-01T11:45:40;10.60;82.60
73572;DHT22;61854;48.510;-2.770;2023-02-01T11:48:10;10.80;82.40
73572;DHT22;61854;48.510;-2.770;2023-02-01T11:55:42;11.10;80.90
73572;DHT22;61854;48.510;-2.770;2023-02-01T12:05:55;11.40;78.40
73572;DHT22;61854;48.510;-2.770;2023-02-01T12:08:27;11.30;79.00
73572;DHT22;61854;48.510;-2.770;2023-02-01T12:13:38;11.30;78.40
73572;DHT22;61854;48.510;-2.770;2023-02-01T12:29:04;11.50;76.50
73572;DHT22;61854;48.510;-2.770;2023-02-01T12:34:24;11.50;75.30
73572;DHT22;61854;48.510;-2.770;2023-02-01T12:39:46;11.50;74.40
73572;DHT22;61854;48.510;-2.770;2023-02-01T12:49:44;11.40;72.60
73572;DHT22;61854;48.510;-2.770;2023-02-01T12:52:13;11.20;74.10
73572;DHT22;61854;48.510;-2.770;2023-02-01T12:57:08;11.10;74.60
73572;DHT22;61854;48.510;-2.770;2023-02-01T12:59:39;11.00;75.20
73572;DHT22;61854;48.510;-2.770;2023-02-01T13:02:18;11.00;75.40
73572;DHT22;61854;48.510;-2.770;2023-02-01T13:05:12;11.00;74.10
73572;DHT22;61854;48.510;-2.770;2023-02-01T13:07:38;11.00;74.00
73572;DHT22;61854;48.510;-2.770;2023-02-01T13:10:12;11.00;74.20
73572;DHT22;61854;48.510;-2.770;2023-02-01T13:15:36;11.00;74.60
73572;DHT22;61854;48.510;-2.770;2023-02-01T13:18:03;11.00;75.30
73572;DHT22;61854;48.510;-2.770;2023-02-01T13:20:39;11.10;74.80
73572;DHT22;61854;48.510;-2.770;2023-02-01T13:25:49;11.30;74.00
73572;DHT22;61854;48.510;-2.770;2023-02-01T13:33:34;11.40;68.00
73572;DHT22;61854;48.510;-2.770;2023-02-01T13:36:06;11.40;68.20
73572;DHT22;61854;48.510;-2.770;2023-02-01T13:44:00;11.40;70.00
73572;DHT22;61854;48.510;-2.770;2023-02-01T13:46:28;11.40;70.50
73572;DHT22;61854;48.510;-2.770;2023-02-01T13:48:58;11.40;70.20
73572;DHT22;61854;48.510;-2.770;2023-02-01T13:51:44;11.40;70.10
73572;DHT22;61854;48.510;-2.770;2023-02-01T13:56:48;11.50;69.40
73572;DHT22;61854;48.510;-2.770;2023-02-01T14:02:00;11.40;70.80
73572;DHT22;61854;48.510;-2.770;2023-02-01T14:04:48;11.40;71.10
73572;DHT22;61854;48.510;-2.770;2023-02-01T14:07:18;11.40;71.30
73572;DHT22;61854;48.510;-2.770;2023-02-01T14:09:44;11.30;71.60
73572;DHT22;61854;48.510;-2.770;2023-02-01T14:15:14;11.40;71.20
73572;DHT22;61854;48.510;-2.770;2023-02-01T14:17:41;11.40;71.00
73572;DHT22;61854;48.510;-2.770;2023-02-01T14:20:48;11.40;71.40
73572;DHT22;61854;48.510;-2.770;2023-02-01T14:23:04;11.30;71.60
73572;DHT22;61854;48.510;-2.770;2023-02-01T14:25:33;11.20;73.30
73572;DHT22;61854;48.510;-2.770;2023-02-01T14:27:58;11.20;72.30
73572;DHT22;61854;48.510;-2.770;2023-02-01T14:30:24;11.10;73.10
73572;DHT22;61854;48.510;-2.770;2023-02-01T14:32:50;11.10;73.70
73572;DHT22;61854;48.510;-2.770;2023-02-01T14:35:25;11.20;73.50
73572;DHT22;61854;48.510;-2.770;2023-02-01T14:37:52;11.20;73.40
73572;DHT22;61854;48.510;-2.770;2023-02-01T14:42:44;11.20;74.40
73572;DHT22;61854;48.510;-2.770;2023-02-01T14:47:51;11.10;74.60
73572;DHT22;61854;48.510;-2.770;2023-02-01T14:52:50;11.00;74.80
73572;DHT22;61854;48.510;-2.770;2023-02-01T14:57:42;11.00;75.60
73572;DHT22;61854;48.510;-2.770;2023-02-01T15:02:39;11.00;75.90
73572;DHT22;61854;48.510;-2.770;2023-02-01T15:05:26;10.90;76.40
73572;DHT22;61854;48.510;-2.770;2023-02-01T15:07:50;10.90;76.40
73572;DHT22;61854;48.510;-2.770;2023-02-01T15:10:17;10.90;77.40
73572;DHT22;61854;48.510;-2.770;2023-02-01T15:12:45;10.80;77.60
73572;DHT22;61854;48.510;-2.770;2023-02-01T15:17:49;10.70;78.30
73572;DHT22;61854;48.510;-2.770;2023-02-01T15:20:15;10.70;79.40
73572;DHT22;61854;48.510;-2.770;2023-02-01T15:22:41;10.60;79.00
73572;DHT22;61854;48.510;-2.770;2023-02-01T15:25:18;10.50;79.70
73572;DHT22;61854;48.510;-2.770;2023-02-01T15:27:43;10.40;79.90
73572;DHT22;61854;48.510;-2.770;2023-02-01T15:30:17;10.40;80.20
73572;DHT22;61854;48.510;-2.770;2023-02-01T15:32:44;10.40;80.50
73572;DHT22;61854;48.510;-2.770;2023-02-01T15:38:17;10.40;80.70
73572;DHT22;61854;48.510;-2.770;2023-02-01T15:40:52;10.40;80.90
73572;DHT22;61854;48.510;-2.770;2023-02-01T15:43:18;10.40;81.00
73572;DHT22;61854;48.510;-2.770;2023-02-01T15:45:43;10.40;81.10
73572;DHT22;61854;48.510;-2.770;2023-02-01T15:48:14;10.40;81.10
73572;DHT22;61854;48.510;-2.770;2023-02-01T15:50:43;10.50;81.20
73572;DHT22;61854;48.510;-2.770;2023-02-01T15:53:09;10.50;81.30
73572;DHT22;61854;48.510;-2.770;2023-02-01T15:55:40;10.50;81.40
73572;DHT22;61854;48.510;-2.770;2023-02-01T15:58:14;10.40;81.80
73572;DHT22;61854;48.510;-2.770;2023-02-01T16:00:43;10.50;81.80
73572;DHT22;61854;48.510;-2.770;2023-02-01T16:03:23;10.40;81.90
73572;DHT22;61854;48.510;-2.770;2023-02-01T16:05:54;10.40;81.80
73572;DHT22;61854;48.510;-2.770;2023-02-01T16:08:22;10.50;82.10
73572;DHT22;61854;48.510;-2.770;2023-02-01T16:10:49;10.40;82.90
73572;DHT22;61854;48.510;-2.770;2023-02-01T16:13:16;10.40;82.10
73572;DHT22;61854;48.510;-2.770;2023-02-01T16:15:42;10.40;82.30
73572;DHT22;61854;48.510;-2.770;2023-02-01T16:18:08;10.40;82.40
73572;DHT22;61854;48.510;-2.770;2023-02-01T16:20:34;10.40;82.70
73572;DHT22;61854;48.510;-2.770;2023-02-01T16:23:00;10.40;82.60
73572;DHT22;61854;48.510;-2.770;2023-02-01T16:25:26;10.40;83.80
73572;DHT22;61854;48.510;-2.770;2023-02-01T16:27:51;10.40;82.80
73572;DHT22;61854;48.510;-2.770;2023-02-01T16:30:17;10.30;82.80
73572;DHT22;61854;48.510;-2.770;2023-02-01T16:32:54;10.40;82.70
73572;DHT22;61854;48.510;-2.770;2023-02-01T16:35:24;10.40;82.70
73572;DHT22;61854;48.510;-2.770;2023-02-01T16:37:50;10.30;82.80
73572;DHT22;61854;48.510;-2.770;2023-02-01T16:40:16;10.30;82.80
73572;DHT22;61854;48.510;-2.770;2023-02-01T16:42:42;10.30;82.90
73572;DHT22;61854;48.510;-2.770;2023-02-01T16:45:07;10.30;82.90
73572;DHT22;61854;48.510;-2.770;2023-02-01T16:47:33;10.30;83.20
73572;DHT22;61854;48.510;-2.770;2023-02-01T16:50:01;10.30;83.30
73572;DHT22;61854;48.510;-2.770;2023-02-01T16:52:27;10.30;83.50
73572;DHT22;61854;48.510;-2.770;2023-02-01T16:54:53;10.20;83.50
73572;DHT22;61854;48.510;-2.770;2023-02-01T16:57:19;10.20;83.70
73572;DHT22;61854;48.510;-2.770;2023-02-01T16:59:47;10.20;84.00
73572;DHT22;61854;48.510;-2.770;2023-02-01T17:02:14;10.20;84.40
73572;DHT22;61854;48.510;-2.770;2023-02-01T17:04:40;10.10;84.40
73572;DHT22;61854;48.510;-2.770;2023-02-01T17:07:06;10.20;84.40
73572;DHT22;61854;48.510;-2.770;2023-02-01T17:09:35;10.10;84.60
73572;DHT22;61854;48.510;-2.770;2023-02-01T17:12:01;10.10;83.80
73572;DHT22;61854;48.510;-2.770;2023-02-01T17:14:26;10.10;83.70
73572;DHT22;61854;48.510;-2.770;2023-02-01T17:16:52;10.10;83.30
73572;DHT22;61854;48.510;-2.770;2023-02-01T17:19:19;10.10;83.40
73572;DHT22;61854;48.510;-2.770;2023-02-01T17:21:48;10.00;83.40
73572;DHT22;61854;48.510;-2.770;2023-02-01T17:24:16;10.10;83.00
73572;DHT22;61854;48.510;-2.770;2023-02-01T17:26:42;10.00;83.20
73572;DHT22;61854;48.510;-2.770;2023-02-01T17:29:08;10.00;83.00
73572;DHT22;61854;48.510;-2.770;2023-02-01T17:31:35;10.00;82.90
73572;DHT22;61854;48.510;-2.770;2023-02-01T17:34:02;10.10;91.30
73572;DHT22;61854;48.510;-2.770;2023-02-01T17:36:27;10.20;98.20
73572;DHT22;61854;48.510;-2.770;2023-02-01T17:38:53;10.10;98.50
73572;DHT22;61854;48.510;-2.770;2023-02-01T17:41:18;10.10;98.60
73572;DHT22;61854;48.510;-2.770;2023-02-01T17:43:43;10.10;98.60
73572;DHT22;61854;48.510;-2.770;2023-02-01T17:46:11;10.10;98.90